createdAt,value
2022-11-08T00:04:49.383Z,69.2
2022-11-08T00:10:24.844Z,69.6
2022-11-08T00:16:02.226Z,69.9
2022-11-08T00:21:37.579Z,69.8
2022-11-08T00:27:12.421Z,69.6
2022-11-08T00:32:48.600Z,69.8
2022-11-08T00:38:23.718Z,69.7
2022-11-08T00:43:58.597Z,69.8
2022-11-08T00:49:33.558Z,70
2022-11-08T00:55:08.430Z,70
2022-11-08T01:00:43.600Z,70.4
2022-11-08T01:06:18.967Z,70.6
2022-11-08T01:11:54.841Z,70.9
2022-11-08T01:17:31.195Z,70.9
2022-11-08T01:23:06.764Z,70.6
2022-11-08T01:29:03.700Z,70.2
2022-11-08T01:34:38.811Z,70.5
2022-11-08T01:40:14.401Z,71
2022-11-08T01:45:49.624Z,71.4
2022-11-08T01:51:25.395Z,71.3
2022-11-08T01:57:00.406Z,70.9
2022-11-08T02:02:35.537Z,70.1
2022-11-08T02:08:12.158Z,68.6
2022-11-08T02:13:48.223Z,67.9
2022-11-08T02:19:23.047Z,66.9
2022-11-08T02:24:58.478Z,66.2
2022-11-08T02:30:37.385Z,67.4
2022-11-08T02:36:12.222Z,66.6
2022-11-08T02:41:47.207Z,67.2
2022-11-08T02:47:44.870Z,68
2022-11-08T02:53:17.522Z,68.9
2022-11-08T02:58:52.188Z,69.5
2022-11-08T03:04:27.204Z,70.3
2022-11-08T03:10:02.310Z,70.7
2022-11-08T03:15:37.491Z,70.9
2022-11-08T03:21:12.319Z,70.5
2022-11-08T03:26:52.056Z,69.6
2022-11-08T03:32:27.854Z,68.6
2022-11-08T03:38:03.692Z,68
2022-11-08T03:43:38.591Z,68.8
2022-11-08T03:49:35.378Z,69.1
2022-11-08T03:55:09.216Z,69.2
2022-11-08T04:00:44.224Z,68.9
2022-11-08T04:06:19.354Z,69
2022-11-08T04:12:00.535Z,69.4
2022-11-08T04:17:36.342Z,69.8
2022-11-08T04:23:11.053Z,70.2
2022-11-08T04:28:54.549Z,70
2022-11-08T04:34:30.694Z,70
2022-11-08T04:40:05.802Z,69.6
2022-11-08T04:45:40.929Z,68.1
2022-11-08T04:51:16.731Z,67.6
2022-11-08T04:56:51.513Z,67.8
2022-11-08T05:02:27.121Z,68.3
2022-11-08T05:08:04.102Z,68.8
2022-11-08T05:13:39.480Z,69.1
2022-11-08T05:19:14.386Z,68.4
2022-11-08T05:24:50.568Z,67.2
2022-11-08T05:30:26.451Z,67.1
2022-11-08T05:36:06.466Z,68.1
2022-11-08T05:41:41.151Z,68.4
2022-11-08T05:47:37.646Z,68.8
2022-11-08T05:53:10.541Z,69.5
2022-11-08T05:58:45.247Z,70.1
2022-11-08T06:04:20.497Z,70.5
2022-11-08T06:10:13.805Z,70.4
2022-11-08T06:15:48.741Z,69.9
2022-11-08T06:21:29.446Z,70.3
2022-11-08T06:27:04.634Z,70.8
2022-11-08T06:32:39.508Z,71.1
2022-11-08T06:38:26.386Z,71.2
2022-11-08T06:44:01.490Z,71.1
2022-11-08T06:49:37.357Z,71.1
2022-11-08T06:55:13.350Z,72.4
2022-11-08T07:00:49.514Z,75.4
2022-11-08T07:06:24.622Z,75.3
2022-11-08T07:11:59.479Z,73.1
2022-11-08T07:17:39.493Z,72.8
2022-11-08T07:23:16.625Z,71.5
2022-11-08T07:28:54.180Z,71.1
2022-11-08T07:34:33.854Z,70.7
2022-11-08T07:40:08.858Z,73.3
2022-11-08T07:46:07.956Z,70.3
2022-11-08T07:51:42.653Z,71.1
2022-11-08T07:57:17.817Z,73.7
2022-11-08T08:02:53.874Z,74.6
2022-11-08T08:08:30.763Z,72.6
2022-11-08T08:14:05.958Z,72
2022-11-08T08:19:43.790Z,74
2022-11-08T08:25:20.030Z,71.1
2022-11-08T08:30:55.152Z,73.1
2022-11-08T08:36:36.933Z,71.2
2022-11-08T08:42:11.831Z,71
2022-11-08T08:47:48.335Z,66.2
2022-11-08T08:53:44.372Z,67.4
2022-11-08T09:07:15.477Z,62.6
2022-11-08T09:12:51.290Z,65.1
2022-11-08T09:18:27.928Z,69.6
2022-11-08T09:24:03.969Z,63.9
2022-11-08T09:29:49.141Z,63.9
2022-11-08T09:35:31.975Z,66.2
2022-11-08T09:41:09.814Z,66.8
2022-11-08T09:46:47.052Z,71.9
2022-11-08T09:52:22.332Z,71.4
2022-11-08T09:58:03.111Z,70.7
2022-11-08T10:04:22.758Z,67.3
2022-11-08T10:09:57.632Z,71.9
2022-11-08T10:15:32.899Z,72.8
2022-11-08T10:21:10.263Z,72.5
2022-11-08T10:26:45.268Z,73.4
2022-11-08T10:32:45.289Z,68.8
2022-11-08T10:38:20.188Z,71.4
2022-11-08T10:43:55.340Z,71.3
2022-11-08T10:49:30.597Z,74.5
2022-11-08T10:55:08.679Z,71.9
2022-11-08T11:00:43.870Z,73.7
2022-11-08T11:06:25.006Z,75.4
2022-11-08T11:12:00.938Z,76.4
2022-11-08T11:17:42.814Z,76.3
2022-11-08T11:23:17.834Z,75
2022-11-08T11:28:52.745Z,73.8
2022-11-08T11:34:29.430Z,74.3
2022-11-08T11:40:04.349Z,73.4
2022-11-08T11:45:47.335Z,71.2
2022-11-08T11:51:22.870Z,74.2
2022-11-08T11:56:59.155Z,70.8
2022-11-08T12:02:34.434Z,72.8
2022-11-08T12:08:10.430Z,73.1
2022-11-08T12:13:53.121Z,73.8
2022-11-08T12:19:30.033Z,68.8
2022-11-08T12:25:05.207Z,69.5
2022-11-08T12:30:40.171Z,73.4
2022-11-08T12:36:15.131Z,71.7
2022-11-08T12:41:50.367Z,70.9
2022-11-08T12:47:25.322Z,70.2
2022-11-08T12:53:00.514Z,72.2
2022-11-08T12:58:35.793Z,73.1
2022-11-08T13:04:10.600Z,74.3
2022-11-08T13:09:45.660Z,76
2022-11-08T13:15:20.897Z,74.2
2022-11-08T13:20:56.936Z,71.2
2022-11-08T13:26:31.826Z,75.8
2022-11-08T13:32:06.798Z,73.9
2022-11-08T13:37:43.833Z,72.7
2022-11-08T13:43:26.956Z,67.8
2022-11-08T13:49:23.813Z,75.7
2022-11-08T13:54:57.358Z,76.2
2022-11-08T14:00:35.927Z,73.9
2022-11-08T14:06:10.755Z,74.8
2022-11-08T14:11:45.967Z,76
2022-11-08T14:17:20.937Z,74.9
2022-11-08T14:23:01.856Z,73.8
2022-11-08T14:28:38.368Z,75.9
2022-11-08T14:34:14.241Z,75.4
2022-11-08T14:39:50.684Z,75.6
2022-11-08T14:45:26.597Z,75.3
2022-11-08T14:51:01.571Z,76.1
2022-11-08T14:56:37.374Z,71.9
2022-11-08T15:02:16.157Z,61.3
2022-11-08T15:07:51.146Z,75.4
2022-11-08T15:13:25.982Z,78.1
2022-11-08T15:19:11.078Z,77.9
2022-11-08T15:24:45.893Z,79.3
2022-11-08T15:30:20.658Z,78.9
2022-11-08T15:35:56.472Z,81.1
2022-11-08T15:41:31.128Z,79.3
2022-11-08T15:47:06.478Z,77.5
2022-11-08T15:52:44.233Z,81.2
2022-11-08T15:58:20.293Z,81.5
2022-11-08T16:03:56.798Z,82.5
2022-11-08T16:09:31.755Z,84.4
2022-11-08T16:15:06.802Z,84.6
2022-11-08T16:20:42.322Z,83.4
2022-11-08T16:26:17.148Z,82.1
2022-11-08T16:32:01.790Z,80.7
2022-11-08T16:37:36.795Z,81.4
2022-11-08T16:43:11.711Z,83.7
2022-11-08T16:48:46.838Z,84.3
2022-11-08T16:54:31.110Z,85
2022-11-08T17:00:05.843Z,82.5
2022-11-08T17:05:41.065Z,81.7
2022-11-08T17:11:16.319Z,84.5
2022-11-08T17:17:02.552Z,82.5
2022-11-08T17:22:37.363Z,81.9
2022-11-08T17:28:12.624Z,81.6
2022-11-08T17:33:47.678Z,81.5
2022-11-08T17:39:23.626Z,81.8
2022-11-08T17:44:58.620Z,81.8
2022-11-08T17:50:33.584Z,82
2022-11-08T17:56:09.399Z,82
2022-11-08T18:01:45.521Z,82.1
2022-11-08T18:07:21.935Z,82
2022-11-08T18:12:57.576Z,82
2022-11-08T18:18:33.453Z,81.9
2022-11-08T18:24:09.780Z,82
2022-11-08T18:29:44.826Z,82.1
2022-11-08T18:35:20.979Z,82.2
2022-11-08T18:40:55.800Z,81.9
2022-11-08T18:46:52.845Z,81.5
2022-11-08T18:52:25.836Z,81.2
2022-11-08T18:58:01.040Z,80.9
2022-11-08T19:03:36.784Z,80.5
2022-11-08T19:09:11.815Z,80.3
2022-11-08T19:14:49.668Z,80.2
2022-11-08T19:20:24.788Z,80.5
2022-11-08T19:25:59.865Z,80.5
2022-11-08T19:31:35.075Z,80.5
2022-11-08T19:37:10.168Z,80.3
2022-11-08T19:42:54.873Z,80
2022-11-08T19:48:51.917Z,79.5
2022-11-08T19:54:24.550Z,79.4
2022-11-08T20:00:00.464Z,78.9
2022-11-08T20:05:35.245Z,78.5
2022-11-08T20:11:10.575Z,78.2
2022-11-08T20:16:53.749Z,78.1
2022-11-08T20:22:29.080Z,77.9
2022-11-08T20:28:05.342Z,78.1
2022-11-08T20:33:40.615Z,77.9
2022-11-08T20:39:17.055Z,77.7
2022-11-08T20:44:53.277Z,78
2022-11-08T20:50:28.526Z,78.5
2022-11-08T20:56:03.471Z,78.3
2022-11-08T21:01:39.649Z,77.7
2022-11-08T21:08:15.272Z,77.9
2022-11-08T21:15:27.750Z,78
2022-11-08T21:21:03.596Z,78.2
2022-11-08T21:26:39.626Z,78.6
2022-11-08T21:32:14.392Z,79
2022-11-08T21:37:49.594Z,79
2022-11-08T21:43:24.598Z,78.8
2022-11-08T21:49:21.567Z,78.3
2022-11-08T21:54:54.316Z,78.3
2022-11-08T22:00:29.506Z,78.1
2022-11-08T22:06:04.910Z,78.1
2022-11-08T22:11:40.880Z,78
2022-11-08T22:17:16.030Z,77.7
2022-11-08T22:22:50.754Z,77.5
2022-11-08T22:28:25.986Z,77.2
2022-11-08T22:34:01.094Z,76.9
2022-11-08T22:39:36.072Z,76.8
2022-11-08T22:45:11.658Z,76.5
2022-11-08T22:50:47.347Z,76.3
2022-11-08T22:56:22.254Z,76.1
2022-11-08T23:01:58.329Z,77
2022-11-08T23:07:33.363Z,77.1
2022-11-08T23:13:09.212Z,77.3
2022-11-08T23:18:44.026Z,77.7
2022-11-08T23:24:19.810Z,78.1
2022-11-08T23:29:54.758Z,78.1
2022-11-08T23:35:29.811Z,78
2022-11-08T23:41:04.672Z,77.8
2022-11-08T23:47:01.365Z,77.6
2022-11-08T23:52:34.980Z,77.6
2022-11-08T23:58:10.583Z,77
